sensor_id;sensor_type;location;lat;lon;timestamp;P1;durP1;ratioP1;P2;durP2;ratioP2
47764;SDS011;33529;49.242;8.670;2023-03-19T00:00:28;6.32;;;3.67;;
47764;SDS011;33529;49.242;8.670;2023-03-19T00:02:55;7.32;;;4.75;;
47764;SDS011;33529;49.242;8.670;2023-03-19T00:05:22;6.35;;;4.85;;
47764;SDS011;33529;49.242;8.670;2023-03-19T00:07:49;7.82;;;4.88;;
47764;SDS011;33529;49.242;8.670;2023-03-19T00:10:16;6.07;;;4.22;;
47764;SDS011;33529;49.242;8.670;2023-03-19T00:12:43;7.25;;;4.35;;
47764;SDS011;33529;49.242;8.670;2023-03-19T00:15:11;8.60;;;4.07;;
47764;SDS011;33529;49.242;8.670;2023-03-19T00:17:40;7.85;;;4.10;;
47764;SDS011;33529;49.242;8.670;2023-03-19T00:20:08;6.65;;;4.03;;
47764;SDS011;33529;49.242;8.670;2023-03-19T00:22:37;8.40;;;4.28;;
47764;SDS011;33529;49.242;8.670;2023-03-19T00:25:05;6.13;;;3.80;;
47764;SDS011;33529;49.242;8.670;2023-03-19T00:27:33;4.53;;;3.00;;
47764;SDS011;33529;49.242;8.670;2023-03-19T00:30:02;4.07;;;2.28;;
47764;SDS011;33529;49.242;8.670;2023-03-19T00:32:30;4.15;;;2.83;;
47764;SDS011;33529;49.242;8.670;2023-03-19T00:34:58;4.97;;;2.47;;
47764;SDS011;33529;49.242;8.670;2023-03-19T00:37:25;3.75;;;2.30;;
47764;SDS011;33529;49.242;8.670;2023-03-19T00:39:53;4.45;;;2.50;;
47764;SDS011;33529;49.242;8.670;2023-03-19T00:42:21;5.97;;;3.72;;
47764;SDS011;33529;49.242;8.670;2023-03-19T00:44:48;4.38;;;3.33;;
47764;SDS011;33529;49.242;8.670;2023-03-19T00:47:15;3.85;;;2.70;;
47764;SDS011;33529;49.242;8.670;2023-03-19T00:49:42;4.85;;;2.78;;
47764;SDS011;33529;49.242;8.670;2023-03-19T00:52:08;7.03;;;3.50;;
47764;SDS011;33529;49.242;8.670;2023-03-19T00:54:35;4.43;;;2.97;;
47764;SDS011;33529;49.242;8.670;2023-03-19T00:57:02;6.63;;;3.55;;
47764;SDS011;33529;49.242;8.670;2023-03-19T00:59:30;6.38;;;3.72;;
47764;SDS011;33529;49.242;8.670;2023-03-19T01:01:57;5.05;;;3.78;;
47764;SDS011;33529;49.242;8.670;2023-03-19T01:04:24;5.00;;;3.17;;
47764;SDS011;33529;49.242;8.670;2023-03-19T01:06:51;4.95;;;3.47;;
47764;SDS011;33529;49.242;8.670;2023-03-19T01:09:18;5.22;;;3.25;;
47764;SDS011;33529;49.242;8.670;2023-03-19T01:11:45;7.50;;;4.07;;
47764;SDS011;33529;49.242;8.670;2023-03-19T01:14:12;7.55;;;4.07;;
47764;SDS011;33529;49.242;8.670;2023-03-19T01:16:41;5.13;;;3.35;;
47764;SDS011;33529;49.242;8.670;2023-03-19T01:19:08;8.85;;;4.53;;
47764;SDS011;33529;49.242;8.670;2023-03-19T01:21:35;6.95;;;3.60;;
47764;SDS011;33529;49.242;8.670;2023-03-19T01:24:02;5.18;;;3.47;;
47764;SDS011;33529;49.242;8.670;2023-03-19T01:26:29;6.32;;;3.65;;
47764;SDS011;33529;49.242;8.670;2023-03-19T01:29:09;5.40;;;3.15;;
47764;SDS011;33529;49.242;8.670;2023-03-19T01:31:36;7.22;;;3.72;;
47764;SDS011;33529;49.242;8.670;2023-03-19T01:34:22;5.72;;;3.30;;
47764;SDS011;33529;49.242;8.670;2023-03-19T01:36:53;4.87;;;3.27;;
47764;SDS011;33529;49.242;8.670;2023-03-19T01:39:27;5.38;;;3.53;;
47764;SDS011;33529;49.242;8.670;2023-03-19T01:41:54;7.28;;;3.60;;
47764;SDS011;33529;49.242;8.670;2023-03-19T01:44:33;4.93;;;3.47;;
47764;SDS011;33529;49.242;8.670;2023-03-19T01:50:22;4.32;;;3.20;;
47764;SDS011;33529;49.242;8.670;2023-03-19T01:53:12;5.07;;;2.67;;
47764;SDS011;33529;49.242;8.670;2023-03-19T01:56:03;6.03;;;2.78;;
47764;SDS011;33529;49.242;8.670;2023-03-19T01:58:43;5.00;;;3.50;;
47764;SDS011;33529;49.242;8.670;2023-03-19T02:01:59;5.95;;;3.45;;
47764;SDS011;33529;49.242;8.670;2023-03-19T02:04:31;5.88;;;3.83;;
47764;SDS011;33529;49.242;8.670;2023-03-19T02:07:00;7.00;;;3.78;;
47764;SDS011;33529;49.242;8.670;2023-03-19T02:09:28;5.03;;;3.63;;
47764;SDS011;33529;49.242;8.670;2023-03-19T02:11:56;6.97;;;3.53;;
47764;SDS011;33529;49.242;8.670;2023-03-19T02:14:23;5.18;;;3.20;;
47764;SDS011;33529;49.242;8.670;2023-03-19T02:16:50;5.10;;;3.25;;
47764;SDS011;33529;49.242;8.670;2023-03-19T02:19:21;8.40;;;3.70;;
47764;SDS011;33529;49.242;8.670;2023-03-19T02:22:07;4.38;;;2.90;;
47764;SDS011;33529;49.242;8.670;2023-03-19T02:24:43;4.55;;;2.60;;
47764;SDS011;33529;49.242;8.670;2023-03-19T02:27:17;4.13;;;1.92;;
47764;SDS011;33529;49.242;8.670;2023-03-19T02:29:47;2.97;;;1.80;;
47764;SDS011;33529;49.242;8.670;2023-03-19T02:32:15;4.90;;;2.20;;
47764;SDS011;33529;49.242;8.670;2023-03-19T02:34:43;3.72;;;2.33;;
47764;SDS011;33529;49.242;8.670;2023-03-19T02:37:21;4.25;;;1.95;;
47764;SDS011;33529;49.242;8.670;2023-03-19T02:40:08;4.53;;;2.25;;
47764;SDS011;33529;49.242;8.670;2023-03-19T02:42:38;4.97;;;2.47;;
47764;SDS011;33529;49.242;8.670;2023-03-19T02:45:06;4.25;;;2.05;;
47764;SDS011;33529;49.242;8.670;2023-03-19T02:47:34;3.40;;;2.03;;
47764;SDS011;33529;49.242;8.670;2023-03-19T02:50:01;4.60;;;2.40;;
47764;SDS011;33529;49.242;8.670;2023-03-19T02:52:27;5.35;;;2.13;;
47764;SDS011;33529;49.242;8.670;2023-03-19T02:54:54;3.95;;;2.53;;
47764;SDS011;33529;49.242;8.670;2023-03-19T02:57:22;3.22;;;2.28;;
47764;SDS011;33529;49.242;8.670;2023-03-19T02:59:49;3.30;;;2.30;;
47764;SDS011;33529;49.242;8.670;2023-03-19T03:02:16;3.25;;;2.05;;
47764;SDS011;33529;49.242;8.670;2023-03-19T03:04:45;4.00;;;2.08;;
47764;SDS011;33529;49.242;8.670;2023-03-19T03:07:13;3.50;;;2.13;;
47764;SDS011;33529;49.242;8.670;2023-03-19T03:09:40;3.60;;;1.90;;
47764;SDS011;33529;49.242;8.670;2023-03-19T03:12:07;3.50;;;2.03;;
47764;SDS011;33529;49.242;8.670;2023-03-19T03:14:35;4.65;;;1.85;;
47764;SDS011;33529;49.242;8.670;2023-03-19T03:17:01;3.95;;;1.85;;
47764;SDS011;33529;49.242;8.670;2023-03-19T03:19:28;4.88;;;1.70;;
47764;SDS011;33529;49.242;8.670;2023-03-19T03:21:56;4.25;;;2.42;;
47764;SDS011;33529;49.242;8.670;2023-03-19T03:24:23;4.03;;;2.20;;
47764;SDS011;33529;49.242;8.670;2023-03-19T03:26:49;3.85;;;2.13;;
47764;SDS011;33529;49.242;8.670;2023-03-19T03:29:18;4.32;;;2.10;;
47764;SDS011;33529;49.242;8.670;2023-03-19T03:31:45;4.03;;;2.30;;
47764;SDS011;33529;49.242;8.670;2023-03-19T03:34:12;5.25;;;2.08;;
47764;SDS011;33529;49.242;8.670;2023-03-19T03:36:40;3.70;;;1.92;;
47764;SDS011;33529;49.242;8.670;2023-03-19T03:39:07;3.35;;;1.70;;
47764;SDS011;33529;49.242;8.670;2023-03-19T03:41:34;3.20;;;2.35;;
47764;SDS011;33529;49.242;8.670;2023-03-19T03:44:01;4.65;;;2.65;;
47764;SDS011;33529;49.242;8.670;2023-03-19T03:46:31;3.17;;;1.98;;
47764;SDS011;33529;49.242;8.670;2023-03-19T03:48:58;3.45;;;2.22;;
47764;SDS011;33529;49.242;8.670;2023-03-19T03:51:25;3.47;;;1.80;;
47764;SDS011;33529;49.242;8.670;2023-03-19T03:53:52;5.18;;;2.08;;
47764;SDS011;33529;49.242;8.670;2023-03-19T03:56:19;4.15;;;2.17;;
47764;SDS011;33529;49.242;8.670;2023-03-19T03:58:46;3.47;;;1.90;;
47764;SDS011;33529;49.242;8.670;2023-03-19T04:01:17;3.63;;;2.00;;
47764;SDS011;33529;49.242;8.670;2023-03-19T04:03:48;3.88;;;1.98;;
47764;SDS011;33529;49.242;8.670;2023-03-19T04:06:16;3.40;;;1.83;;
47764;SDS011;33529;49.242;8.670;2023-03-19T04:08:49;2.63;;;1.50;;
47764;SDS011;33529;49.242;8.670;2023-03-19T04:11:17;3.63;;;1.88;;
47764;SDS011;33529;49.242;8.670;2023-03-19T04:13:44;3.85;;;1.73;;
47764;SDS011;33529;49.242;8.670;2023-03-19T04:16:12;2.97;;;1.70;;
47764;SDS011;33529;49.242;8.670;2023-03-19T04:18:39;3.70;;;1.88;;
47764;SDS011;33529;49.242;8.670;2023-03-19T04:21:06;2.78;;;1.60;;
47764;SDS011;33529;49.242;8.670;2023-03-19T04:23:34;2.90;;;1.63;;
47764;SDS011;33529;49.242;8.670;2023-03-19T04:26:02;4.22;;;1.83;;
47764;SDS011;33529;49.242;8.670;2023-03-19T04:28:32;3.00;;;1.80;;
47764;SDS011;33529;49.242;8.670;2023-03-19T04:31:00;4.55;;;1.70;;
47764;SDS011;33529;49.242;8.670;2023-03-19T04:33:32;3.38;;;1.70;;
47764;SDS011;33529;49.242;8.670;2023-03-19T04:36:01;2.97;;;1.98;;
47764;SDS011;33529;49.242;8.670;2023-03-19T04:38:29;3.15;;;1.70;;
47764;SDS011;33529;49.242;8.670;2023-03-19T04:41:00;2.92;;;1.80;;
47764;SDS011;33529;49.242;8.670;2023-03-19T04:43:27;2.13;;;1.35;;
47764;SDS011;33529;49.242;8.670;2023-03-19T04:45:54;3.33;;;1.50;;
47764;SDS011;33529;49.242;8.670;2023-03-19T04:48:21;4.78;;;1.77;;
47764;SDS011;33529;49.242;8.670;2023-03-19T04:50:50;3.08;;;1.40;;
47764;SDS011;33529;49.242;8.670;2023-03-19T04:53:18;3.78;;;1.70;;
47764;SDS011;33529;49.242;8.670;2023-03-19T04:55:46;3.63;;;1.48;;
47764;SDS011;33529;49.242;8.670;2023-03-19T04:58:15;4.32;;;1.95;;
47764;SDS011;33529;49.242;8.670;2023-03-19T05:00:45;2.72;;;1.58;;
47764;SDS011;33529;49.242;8.670;2023-03-19T05:03:17;4.22;;;1.85;;
47764;SDS011;33529;49.242;8.670;2023-03-19T05:05:46;3.47;;;2.00;;
47764;SDS011;33529;49.242;8.670;2023-03-19T05:08:13;2.17;;;1.13;;
47764;SDS011;33529;49.242;8.670;2023-03-19T05:10:40;3.13;;;1.70;;
47764;SDS011;33529;49.242;8.670;2023-03-19T05:13:07;3.05;;;1.80;;
47764;SDS011;33529;49.242;8.670;2023-03-19T05:15:42;3.30;;;1.50;;
47764;SDS011;33529;49.242;8.670;2023-03-19T05:18:11;3.15;;;1.65;;
47764;SDS011;33529;49.242;8.670;2023-03-19T05:20:42;2.55;;;1.60;;
47764;SDS011;33529;49.242;8.670;2023-03-19T05:23:16;2.53;;;1.38;;
47764;SDS011;33529;49.242;8.670;2023-03-19T05:26:04;3.08;;;1.45;;
47764;SDS011;33529;49.242;8.670;2023-03-19T05:28:50;2.97;;;1.85;;
47764;SDS011;33529;49.242;8.670;2023-03-19T05:31:23;3.03;;;1.75;;
47764;SDS011;33529;49.242;8.670;2023-03-19T05:33:52;3.80;;;1.48;;
47764;SDS011;33529;49.242;8.670;2023-03-19T05:36:20;4.13;;;1.55;;
47764;SDS011;33529;49.242;8.670;2023-03-19T05:38:56;3.08;;;1.75;;
47764;SDS011;33529;49.242;8.670;2023-03-19T05:41:28;5.18;;;1.65;;
47764;SDS011;33529;49.242;8.670;2023-03-19T05:44:00;4.32;;;2.38;;
47764;SDS011;33529;49.242;8.670;2023-03-19T05:46:44;3.42;;;1.58;;
47764;SDS011;33529;49.242;8.670;2023-03-19T05:49:11;3.28;;;1.75;;
47764;SDS011;33529;49.242;8.670;2023-03-19T05:51:39;3.58;;;1.50;;
47764;SDS011;33529;49.242;8.670;2023-03-19T05:54:07;3.17;;;1.70;;
47764;SDS011;33529;49.242;8.670;2023-03-19T05:56:47;2.80;;;1.55;;
47764;SDS011;33529;49.242;8.670;2023-03-19T05:59:26;3.08;;;1.63;;
47764;SDS011;33529;49.242;8.670;2023-03-19T06:06:07;3.70;;;1.60;;
47764;SDS011;33529;49.242;8.670;2023-03-19T06:08:39;2.63;;;1.45;;
47764;SDS011;33529;49.242;8.670;2023-03-19T06:11:17;2.03;;;1.30;;
47764;SDS011;33529;49.242;8.670;2023-03-19T06:13:50;2.20;;;1.27;;
47764;SDS011;33529;49.242;8.670;2023-03-19T06:16:17;2.47;;;1.15;;
47764;SDS011;33529;49.242;8.670;2023-03-19T06:18:52;2.70;;;1.38;;
47764;SDS011;33529;49.242;8.670;2023-03-19T06:21:19;3.22;;;1.75;;
47764;SDS011;33529;49.242;8.670;2023-03-19T06:23:45;2.55;;;1.27;;
47764;SDS011;33529;49.242;8.670;2023-03-19T06:26:16;4.03;;;1.58;;
47764;SDS011;33529;49.242;8.670;2023-03-19T06:28:49;4.03;;;1.60;;
47764;SDS011;33529;49.242;8.670;2023-03-19T06:31:17;2.10;;;1.33;;
47764;SDS011;33529;49.242;8.670;2023-03-19T06:34:04;3.10;;;1.65;;
47764;SDS011;33529;49.242;8.670;2023-03-19T06:36:39;3.15;;;1.40;;
47764;SDS011;33529;49.242;8.670;2023-03-19T06:39:09;3.25;;;1.55;;
47764;SDS011;33529;49.242;8.670;2023-03-19T06:41:36;3.00;;;1.30;;
47764;SDS011;33529;49.242;8.670;2023-03-19T06:44:14;2.50;;;1.52;;
47764;SDS011;33529;49.242;8.670;2023-03-19T06:46:41;2.92;;;1.00;;
47764;SDS011;33529;49.242;8.670;2023-03-19T06:49:08;3.63;;;1.40;;
47764;SDS011;33529;49.242;8.670;2023-03-19T06:51:35;2.50;;;1.40;;
47764;SDS011;33529;49.242;8.670;2023-03-19T06:54:02;2.67;;;1.50;;
47764;SDS011;33529;49.242;8.670;2023-03-19T06:56:29;3.72;;;1.35;;
47764;SDS011;33529;49.242;8.670;2023-03-19T06:58:56;2.45;;;1.38;;
47764;SDS011;33529;49.242;8.670;2023-03-19T07:01:23;3.10;;;1.45;;
47764;SDS011;33529;49.242;8.670;2023-03-19T07:03:50;4.50;;;1.75;;
47764;SDS011;33529;49.242;8.670;2023-03-19T07:06:16;3.15;;;1.60;;
47764;SDS011;33529;49.242;8.670;2023-03-19T07:08:43;3.58;;;1.70;;
47764;SDS011;33529;49.242;8.670;2023-03-19T07:11:12;3.50;;;1.42;;
47764;SDS011;33529;49.242;8.670;2023-03-19T07:13:39;2.83;;;1.33;;
47764;SDS011;33529;49.242;8.670;2023-03-19T07:16:06;4.03;;;1.60;;
47764;SDS011;33529;49.242;8.670;2023-03-19T07:18:34;1.95;;;1.27;;
47764;SDS011;33529;49.242;8.670;2023-03-19T07:21:01;5.32;;;1.58;;
47764;SDS011;33529;49.242;8.670;2023-03-19T07:23:28;2.17;;;1.25;;
47764;SDS011;33529;49.242;8.670;2023-03-19T07:25:58;2.17;;;1.23;;
47764;SDS011;33529;49.242;8.670;2023-03-19T07:28:25;2.42;;;1.42;;
47764;SDS011;33529;49.242;8.670;2023-03-19T07:30:52;2.28;;;1.20;;
47764;SDS011;33529;49.242;8.670;2023-03-19T07:33:19;1.85;;;1.13;;
47764;SDS011;33529;49.242;8.670;2023-03-19T07:35:47;2.42;;;1.30;;
47764;SDS011;33529;49.242;8.670;2023-03-19T07:38:14;2.08;;;0.95;;
47764;SDS011;33529;49.242;8.670;2023-03-19T07:40:40;3.17;;;1.10;;
47764;SDS011;33529;49.242;8.670;2023-03-19T07:43:20;3.45;;;1.70;;
47764;SDS011;33529;49.242;8.670;2023-03-19T07:45:47;4.00;;;1.40;;
47764;SDS011;33529;49.242;8.670;2023-03-19T07:48:14;3.17;;;1.50;;
47764;SDS011;33529;49.242;8.670;2023-03-19T07:50:41;3.38;;;1.40;;
47764;SDS011;33529;49.242;8.670;2023-03-19T07:53:08;4.00;;;1.50;;
47764;SDS011;33529;49.242;8.670;2023-03-19T07:55:35;2.00;;;1.08;;
47764;SDS011;33529;49.242;8.670;2023-03-19T07:58:03;2.60;;;1.35;;
47764;SDS011;33529;49.242;8.670;2023-03-19T08:00:30;3.75;;;1.73;;
47764;SDS011;33529;49.242;8.670;2023-03-19T08:02:58;4.05;;;1.42;;
47764;SDS011;33529;49.242;8.670;2023-03-19T08:05:25;2.83;;;1.40;;
47764;SDS011;33529;49.242;8.670;2023-03-19T08:07:52;2.90;;;1.35;;
47764;SDS011;33529;49.242;8.670;2023-03-19T08:10:19;2.95;;;1.30;;
47764;SDS011;33529;49.242;8.670;2023-03-19T08:12:47;3.28;;;1.60;;
47764;SDS011;33529;49.242;8.670;2023-03-19T08:15:14;1.90;;;1.10;;
47764;SDS011;33529;49.242;8.670;2023-03-19T08:17:41;3.47;;;1.42;;
47764;SDS011;33529;49.242;8.670;2023-03-19T08:20:11;2.45;;;1.02;;
47764;SDS011;33529;49.242;8.670;2023-03-19T08:22:41;4.05;;;1.52;;
47764;SDS011;33529;49.242;8.670;2023-03-19T08:25:08;2.65;;;1.30;;
47764;SDS011;33529;49.242;8.670;2023-03-19T08:27:35;3.30;;;1.40;;
47764;SDS011;33529;49.242;8.670;2023-03-19T08:30:03;2.10;;;1.30;;
47764;SDS011;33529;49.242;8.670;2023-03-19T08:32:31;2.72;;;1.40;;
47764;SDS011;33529;49.242;8.670;2023-03-19T08:34:58;2.30;;;1.30;;
47764;SDS011;33529;49.242;8.670;2023-03-19T08:37:25;3.10;;;1.33;;
47764;SDS011;33529;49.242;8.670;2023-03-19T08:39:52;4.40;;;1.88;;
47764;SDS011;33529;49.242;8.670;2023-03-19T08:42:19;3.70;;;2.08;;
47764;SDS011;33529;49.242;8.670;2023-03-19T08:44:46;3.90;;;2.13;;
47764;SDS011;33529;49.242;8.670;2023-03-19T08:47:13;1.83;;;1.20;;
47764;SDS011;33529;49.242;8.670;2023-03-19T08:49:41;3.15;;;1.20;;
47764;SDS011;33529;49.242;8.670;2023-03-19T08:52:08;2.65;;;1.20;;
47764;SDS011;33529;49.242;8.670;2023-03-19T08:54:34;3.20;;;1.60;;
47764;SDS011;33529;49.242;8.670;2023-03-19T08:57:02;2.58;;;1.58;;
47764;SDS011;33529;49.242;8.670;2023-03-19T08:59:29;3.47;;;1.50;;
47764;SDS011;33529;49.242;8.670;2023-03-19T09:01:59;3.70;;;1.52;;
47764;SDS011;33529;49.242;8.670;2023-03-19T09:04:27;2.63;;;1.33;;
47764;SDS011;33529;49.242;8.670;2023-03-19T09:06:54;2.22;;;1.23;;
47764;SDS011;33529;49.242;8.670;2023-03-19T09:09:22;1.48;;;1.10;;
47764;SDS011;33529;49.242;8.670;2023-03-19T09:11:49;2.33;;;1.15;;
47764;SDS011;33529;49.242;8.670;2023-03-19T09:14:16;2.10;;;1.10;;
47764;SDS011;33529;49.242;8.670;2023-03-19T09:16:45;1.60;;;1.00;;
47764;SDS011;33529;49.242;8.670;2023-03-19T09:19:12;2.70;;;1.38;;
47764;SDS011;33529;49.242;8.670;2023-03-19T09:21:39;1.45;;;1.00;;
47764;SDS011;33529;49.242;8.670;2023-03-19T09:24:06;1.60;;;1.02;;
47764;SDS011;33529;49.242;8.670;2023-03-19T09:26:33;1.90;;;0.93;;
47764;SDS011;33529;49.242;8.670;2023-03-19T09:29:00;2.05;;;0.77;;
47764;SDS011;33529;49.242;8.670;2023-03-19T09:31:28;1.55;;;0.85;;
47764;SDS011;33529;49.242;8.670;2023-03-19T09:33:56;2.05;;;0.98;;
47764;SDS011;33529;49.242;8.670;2023-03-19T09:36:22;2.13;;;1.20;;
47764;SDS011;33529;49.242;8.670;2023-03-19T09:38:49;2.00;;;0.90;;
47764;SDS011;33529;49.242;8.670;2023-03-19T09:41:22;2.63;;;0.80;;
47764;SDS011;33529;49.242;8.670;2023-03-19T09:44:29;1.98;;;1.00;;
47764;SDS011;33529;49.242;8.670;2023-03-19T09:49:37;2.03;;;0.98;;
47764;SDS011;33529;49.242;8.670;2023-03-19T09:52:18;2.38;;;1.45;;
47764;SDS011;33529;49.242;8.670;2023-03-19T09:54:59;1.88;;;0.82;;
47764;SDS011;33529;49.242;8.670;2023-03-19T09:57:31;2.80;;;1.13;;
47764;SDS011;33529;49.242;8.670;2023-03-19T10:00:01;1.90;;;1.10;;
47764;SDS011;33529;49.242;8.670;2023-03-19T10:02:37;2.63;;;1.13;;
47764;SDS011;33529;49.242;8.670;2023-03-19T10:10:46;2.05;;;0.90;;
47764;SDS011;33529;49.242;8.670;2023-03-19T10:16:12;3.25;;;1.05;;
47764;SDS011;33529;49.242;8.670;2023-03-19T10:18:48;2.17;;;1.00;;
47764;SDS011;33529;49.242;8.670;2023-03-19T10:21:22;2.30;;;0.90;;
47764;SDS011;33529;49.242;8.670;2023-03-19T10:24:02;2.10;;;1.00;;
47764;SDS011;33529;49.242;8.670;2023-03-19T10:26:31;3.03;;;1.10;;
47764;SDS011;33529;49.242;8.670;2023-03-19T10:29:07;1.58;;;0.85;;
47764;SDS011;33529;49.242;8.670;2023-03-19T10:34:27;4.95;;;1.13;;
47764;SDS011;33529;49.242;8.670;2023-03-19T10:37:21;2.70;;;1.08;;
47764;SDS011;33529;49.242;8.670;2023-03-19T10:39:51;2.17;;;1.10;;
47764;SDS011;33529;49.242;8.670;2023-03-19T10:45:23;2.88;;;1.20;;
47764;SDS011;33529;49.242;8.670;2023-03-19T10:47:54;2.05;;;0.93;;
47764;SDS011;33529;49.242;8.670;2023-03-19T10:53:02;2.58;;;1.00;;
47764;SDS011;33529;49.242;8.670;2023-03-19T10:55:54;2.53;;;1.15;;
47764;SDS011;33529;49.242;8.670;2023-03-19T10:58:25;2.13;;;0.98;;
47764;SDS011;33529;49.242;8.670;2023-03-19T11:00:55;1.48;;;1.10;;
47764;SDS011;33529;49.242;8.670;2023-03-19T11:03:34;2.50;;;1.17;;
47764;SDS011;33529;49.242;8.670;2023-03-19T11:06:17;3.90;;;1.30;;
47764;SDS011;33529;49.242;8.670;2023-03-19T11:08:54;2.83;;;1.20;;
47764;SDS011;33529;49.242;8.670;2023-03-19T11:11:23;1.77;;;1.10;;
47764;SDS011;33529;49.242;8.670;2023-03-19T11:14:15;2.03;;;1.10;;
47764;SDS011;33529;49.242;8.670;2023-03-19T11:19:31;2.08;;;1.13;;
47764;SDS011;33529;49.242;8.670;2023-03-19T11:24:31;1.50;;;0.90;;
47764;SDS011;33529;49.242;8.670;2023-03-19T11:26:59;2.47;;;1.13;;
47764;SDS011;33529;49.242;8.670;2023-03-19T11:29:27;2.38;;;1.05;;
47764;SDS011;33529;49.242;8.670;2023-03-19T11:32:04;2.65;;;1.30;;
47764;SDS011;33529;49.242;8.670;2023-03-19T11:37:49;2.55;;;1.17;;
47764;SDS011;33529;49.242;8.670;2023-03-19T11:43:15;2.15;;;1.20;;
47764;SDS011;33529;49.242;8.670;2023-03-19T11:48:35;2.03;;;1.10;;
47764;SDS011;33529;49.242;8.670;2023-03-19T11:51:18;2.55;;;0.98;;
47764;SDS011;33529;49.242;8.670;2023-03-19T11:53:59;2.65;;;1.10;;
47764;SDS011;33529;49.242;8.670;2023-03-19T11:56:43;2.95;;;1.02;;
47764;SDS011;33529;49.242;8.670;2023-03-19T11:59:27;2.72;;;1.05;;
47764;SDS011;33529;49.242;8.670;2023-03-19T12:07:36;0.95;;;0.60;;
47764;SDS011;33529;49.242;8.670;2023-03-19T12:10:20;1.38;;;0.70;;
47764;SDS011;33529;49.242;8.670;2023-03-19T12:13:00;1.60;;;0.80;;
47764;SDS011;33529;49.242;8.670;2023-03-19T12:15:59;1.92;;;0.80;;
47764;SDS011;33529;49.242;8.670;2023-03-19T12:18:38;1.92;;;0.93;;
47764;SDS011;33529;49.242;8.670;2023-03-19T12:21:20;1.42;;;0.70;;
47764;SDS011;33529;49.242;8.670;2023-03-19T12:35:20;2.67;;;1.27;;
47764;SDS011;33529;49.242;8.670;2023-03-19T12:38:08;2.47;;;1.15;;
47764;SDS011;33529;49.242;8.670;2023-03-19T12:40:51;2.67;;;1.00;;
47764;SDS011;33529;49.242;8.670;2023-03-19T12:46:02;2.15;;;0.75;;
47764;SDS011;33529;49.242;8.670;2023-03-19T12:48:38;1.52;;;0.80;;
47764;SDS011;33529;49.242;8.670;2023-03-19T12:51:11;2.53;;;1.15;;
47764;SDS011;33529;49.242;8.670;2023-03-19T12:53:53;1.95;;;0.93;;
47764;SDS011;33529;49.242;8.670;2023-03-19T12:59:38;2.75;;;1.20;;
47764;SDS011;33529;49.242;8.670;2023-03-19T13:02:30;1.95;;;1.02;;
47764;SDS011;33529;49.242;8.670;2023-03-19T13:05:36;2.05;;;1.42;;
47764;SDS011;33529;49.242;8.670;2023-03-19T13:08:17;1.83;;;0.85;;
47764;SDS011;33529;49.242;8.670;2023-03-19T13:10:47;2.63;;;1.20;;
47764;SDS011;33529;49.242;8.670;2023-03-19T13:13:26;2.08;;;0.98;;
47764;SDS011;33529;49.242;8.670;2023-03-19T13:15:59;2.70;;;1.10;;
47764;SDS011;33529;49.242;8.670;2023-03-19T13:18:43;1.73;;;1.17;;
47764;SDS011;33529;49.242;8.670;2023-03-19T13:23:50;2.40;;;1.15;;
47764;SDS011;33529;49.242;8.670;2023-03-19T13:26:34;1.58;;;1.00;;
47764;SDS011;33529;49.242;8.670;2023-03-19T13:29:14;2.75;;;1.40;;
47764;SDS011;33529;49.242;8.670;2023-03-19T13:31:44;2.75;;;1.58;;
47764;SDS011;33529;49.242;8.670;2023-03-19T13:36:42;2.10;;;1.33;;
47764;SDS011;33529;49.242;8.670;2023-03-19T13:39:13;2.65;;;1.35;;
47764;SDS011;33529;49.242;8.670;2023-03-19T13:41:47;2.40;;;1.17;;
47764;SDS011;33529;49.242;8.670;2023-03-19T13:44:51;2.30;;;1.10;;
47764;SDS011;33529;49.242;8.670;2023-03-19T13:50:08;1.98;;;1.10;;
47764;SDS011;33529;49.242;8.670;2023-03-19T13:52:49;2.72;;;0.93;;
47764;SDS011;33529;49.242;8.670;2023-03-19T13:57:54;1.45;;;0.88;;
47764;SDS011;33529;49.242;8.670;2023-03-19T14:05:56;2.70;;;1.30;;
47764;SDS011;33529;49.242;8.670;2023-03-19T14:08:26;2.47;;;1.20;;
47764;SDS011;33529;49.242;8.670;2023-03-19T14:10:59;2.40;;;1.02;;
47764;SDS011;33529;49.242;8.670;2023-03-19T14:13:30;2.30;;;1.13;;
47764;SDS011;33529;49.242;8.670;2023-03-19T14:16:02;2.67;;;1.33;;
47764;SDS011;33529;49.242;8.670;2023-03-19T14:18:54;2.72;;;1.17;;
47764;SDS011;33529;49.242;8.670;2023-03-19T14:27:19;2.22;;;1.08;;
47764;SDS011;33529;49.242;8.670;2023-03-19T14:29:54;2.63;;;1.13;;
47764;SDS011;33529;49.242;8.670;2023-03-19T14:32:28;2.25;;;1.10;;
47764;SDS011;33529;49.242;8.670;2023-03-19T14:35:00;1.70;;;0.90;;
47764;SDS011;33529;49.242;8.670;2023-03-19T14:37:33;2.15;;;0.90;;
47764;SDS011;33529;49.242;8.670;2023-03-19T14:40:25;3.28;;;0.88;;
47764;SDS011;33529;49.242;8.670;2023-03-19T14:43:02;1.45;;;0.70;;
47764;SDS011;33529;49.242;8.670;2023-03-19T14:45:41;0.73;;;0.55;;
47764;SDS011;33529;49.242;8.670;2023-03-19T14:48:16;1.00;;;0.50;;
47764;SDS011;33529;49.242;8.670;2023-03-19T14:50:58;0.95;;;0.55;;
47764;SDS011;33529;49.242;8.670;2023-03-19T14:56:20;1.17;;;0.63;;
47764;SDS011;33529;49.242;8.670;2023-03-19T14:58:57;1.98;;;1.08;;
47764;SDS011;33529;49.242;8.670;2023-03-19T15:01:29;1.65;;;0.93;;
47764;SDS011;33529;49.242;8.670;2023-03-19T15:03:59;2.38;;;0.80;;
47764;SDS011;33529;49.242;8.670;2023-03-19T15:06:32;1.85;;;0.63;;
47764;SDS011;33529;49.242;8.670;2023-03-19T15:14:41;1.88;;;0.90;;
47764;SDS011;33529;49.242;8.670;2023-03-19T15:17:31;1.77;;;0.80;;
47764;SDS011;33529;49.242;8.670;2023-03-19T15:20:07;1.55;;;1.00;;
47764;SDS011;33529;49.242;8.670;2023-03-19T15:22:59;1.42;;;0.70;;
47764;SDS011;33529;49.242;8.670;2023-03-19T15:25:27;1.20;;;0.73;;
47764;SDS011;33529;49.242;8.670;2023-03-19T15:28:10;1.75;;;0.90;;
47764;SDS011;33529;49.242;8.670;2023-03-19T15:30:39;2.33;;;0.80;;
47764;SDS011;33529;49.242;8.670;2023-03-19T15:33:30;1.08;;;0.70;;
47764;SDS011;33529;49.242;8.670;2023-03-19T15:36:15;1.40;;;0.73;;
47764;SDS011;33529;49.242;8.670;2023-03-19T15:41:18;3.38;;;0.73;;
47764;SDS011;33529;49.242;8.670;2023-03-19T15:43:46;1.77;;;0.73;;
47764;SDS011;33529;49.242;8.670;2023-03-19T15:46:15;0.85;;;0.50;;
47764;SDS011;33529;49.242;8.670;2023-03-19T15:49:08;1.40;;;0.77;;
47764;SDS011;33529;49.242;8.670;2023-03-19T15:51:56;1.90;;;0.70;;
47764;SDS011;33529;49.242;8.670;2023-03-19T15:56:53;0.90;;;0.60;;
47764;SDS011;33529;49.242;8.670;2023-03-19T15:59:22;1.42;;;0.52;;
47764;SDS011;33529;49.242;8.670;2023-03-19T16:01:55;1.00;;;0.70;;
47764;SDS011;33529;49.242;8.670;2023-03-19T16:04:24;1.38;;;0.50;;
47764;SDS011;33529;49.242;8.670;2023-03-19T16:06:55;1.70;;;1.02;;
47764;SDS011;33529;49.242;8.670;2023-03-19T16:09:25;1.73;;;0.85;;
47764;SDS011;33529;49.242;8.670;2023-03-19T16:11:55;1.25;;;0.75;;
47764;SDS011;33529;49.242;8.670;2023-03-19T16:14:26;1.55;;;0.60;;
47764;SDS011;33529;49.242;8.670;2023-03-19T16:17:01;1.27;;;0.60;;
47764;SDS011;33529;49.242;8.670;2023-03-19T16:19:36;1.23;;;0.50;;
47764;SDS011;33529;49.242;8.670;2023-03-19T16:22:14;1.52;;;0.70;;
47764;SDS011;33529;49.242;8.670;2023-03-19T16:24:43;1.33;;;0.80;;
47764;SDS011;33529;49.242;8.670;2023-03-19T16:27:13;2.20;;;0.68;;
47764;SDS011;33529;49.242;8.670;2023-03-19T16:29:43;1.67;;;0.93;;
47764;SDS011;33529;49.242;8.670;2023-03-19T16:32:19;1.13;;;0.70;;
47764;SDS011;33529;49.242;8.670;2023-03-19T16:34:57;1.02;;;0.70;;
47764;SDS011;33529;49.242;8.670;2023-03-19T16:42:38;1.48;;;1.00;;
47764;SDS011;33529;49.242;8.670;2023-03-19T16:47:51;1.38;;;0.60;;
47764;SDS011;33529;49.242;8.670;2023-03-19T16:50:29;1.50;;;0.80;;
47764;SDS011;33529;49.242;8.670;2023-03-19T16:52:58;0.98;;;0.70;;
47764;SDS011;33529;49.242;8.670;2023-03-19T16:55:31;1.95;;;1.00;;
47764;SDS011;33529;49.242;8.670;2023-03-19T16:58:01;1.52;;;0.90;;
47764;SDS011;33529;49.242;8.670;2023-03-19T17:00:38;1.35;;;0.70;;
47764;SDS011;33529;49.242;8.670;2023-03-19T17:03:14;1.08;;;0.30;;